• Join FlightAware (Why Join?)
  • Login
  • US Flag 
02:08PM EST


 

Airport Tracker/Info


-or-


 

Live Flight TrackerFlight Track Log ✈ UAL1259 ✈ 14-Jun-2013 ✈ KLGA - KIAH

Flight Track Log - Related Links

Times and Time Zones

All times are in EDT time to prevent confusion due to time zone crossing. See the UAL1259 flight status page for this flight to view local times or setup timezone preferences in your user account.

Time Position Orientation Groundspeed Altitude Reporting Facility
EDT Latitude Longitude Course Direction KTS MPH feet Rate Location/Type
08:37PM 40.8167 -73.8667 252° West 171 197 2,400  Level New York TRACON
08:39PM 40.8858 -73.9414 321° Northwest 223 257 6,300 2,640 Climbing New York Center
08:40PM 40.9122 -74.0386 290° West 245 282 9,500 2,700 Climbing New York Center
08:41PM 40.8992 -74.1367 260° West 283 326 11,700 2,400 Climbing New York Center
08:42PM 40.6000 -74.7571 270° West  Level FlightAware Approximate
08:42PM 40.8561 -74.2525 244° Southwest 328 377 14,400  Level New York Center
08:43PM 40.5775 -74.9065 252° West  Level FlightAware Approximate
08:43PM 40.8064 -74.3844 244° Southwest 358 412 17,000  Level New York Center
08:44PM 40.7611 -74.5025 243° Southwest 365 420 17,200 1,020 Climbing New York Center
08:45PM 40.7178 -74.6153 243° Southwest 374 430 19,100 2,280 Climbing New York Center
08:46PM 40.6486 -74.7508 236° Southwest 399 459 21,800 2,280 Climbing New York Center
08:47PM 40.5842 -74.8728 235° Southwest 412 474 23,700 1,740 Climbing New York Center
08:48PM 40.5147 -75.0050 235° Southwest 424 488 25,300 1,380 Climbing New York Center
08:49PM 40.4472 -75.1428 237° Southwest 439 505 26,500 1,140 Climbing New York Center
08:50PM 40.3708 -75.2878 235° Southwest 466 536 27,600 1,140 Climbing New York Center
08:51PM 40.2922 -75.4350 235° Southwest 490 564 28,900 1,680 Climbing New York Center
08:52PM 40.2111 -75.5844 235° Southwest 498 573 31,000 1,500 Climbing New York Center
08:53PM 40.1406 -75.7289 237° Southwest 498 573 32,000 660 Climbing New York Center
08:54PM 40.0678 -75.8731 237° Southwest 490 564 32,400 960 Climbing New York Center
08:55PM 39.9947 -76.0167 236° Southwest 490 564 33,900 540 Climbing New York Center
08:57PM 39.8786 -76.2511 237° Southwest 485 558 34,000  Climbing Washington Center
08:58PM 39.8028 -76.3936 235° Southwest 485 558 33,900  Descending Washington Center
08:59PM 39.7139 -76.5517 234° Southwest 490 564 34,000  Climbing Washington Center
09:00PM 39.6442 -76.6856 236° Southwest 495 570 34,000 840 Level Washington Center
09:01PM 39.5719 -76.8300 237° Southwest 490 564 35,700 960 Climbing Washington Center
09:02PM 39.4953 -76.9658 234° Southwest 485 558 36,000 120 Climbing Washington Center
09:03PM 39.3939 -77.0819 222° Southwest 485 558 36,000  Level Washington Center
09:04PM 39.2839 -77.2164 223° Southwest 485 558 36,000  Level Washington Center
09:05PM 39.1825 -77.3053 214° Southwest 496 571 36,000  Level Washington Center
09:06PM 39.0642 -77.4281 219° Southwest 501 577 36,000  Level Washington Center
09:07PM 38.9561 -77.5403 219° Southwest 501 577 36,000  Level Washington Center
09:08PM 38.8456 -77.6572 219° Southwest 509 586 36,000  Level Washington Center
09:09PM 38.7311 -77.7711 218° Southwest 515 593 36,000  Level Washington Center
09:10PM 38.6308 -77.8878 222° Southwest 507 583 36,000  Level Washington Center
09:11PM 38.5489 -78.0233 232° Southwest 492 566 36,000  Level Washington Center
09:12PM 38.4711 -78.1586 234° Southwest 487 560 36,000  Level Washington Center
09:13PM 38.3889 -78.2964 233° Southwest 487 560 36,000  Level Washington Center
09:14PM 38.3086 -78.4308 233° Southwest 487 560 36,000  Level Washington Center
09:15PM 38.2431 -78.5500 235° Southwest 487 560 36,000  Level Washington Center
09:16PM 38.1625 -78.6842 233° Southwest 487 560 36,000  Level Washington Center
09:17PM 38.0711 -78.8333 232° Southwest 487 560 36,000  Level Washington Center
09:18PM 37.9903 -78.9669 233° Southwest 492 566 36,000  Level Washington Center
09:19PM 37.9114 -79.1003 233° Southwest 492 566 36,000  Level Washington Center
09:20PM 37.8383 -79.2389 236° Southwest 492 566 36,000  Level Washington Center
09:21PM 37.7781 -79.3647 239° Southwest 479 551 36,000  Level Washington Center
09:22PM 37.6983 -79.5156 236° Southwest 474 545 36,000  Level Washington Center
09:23PM 37.6378 -79.6411 239° Southwest 467 537 36,000  Level Washington Center
09:24PM 37.5617 -79.7889 237° Southwest 467 537 36,000  Level Washington Center
09:25PM 37.4397 -80.0269 237° Southwest 481 554 36,000  Level Atlanta Center
09:26PM 37.3769 -80.1503 237° Southwest 473 544 36,000  Level Atlanta Center
09:27PM 37.3103 -80.2789 237° Southwest 468 539 36,000  Level Atlanta Center
09:28PM 37.2411 -80.4125 237° Southwest 468 539 36,000  Level Atlanta Center
09:29PM 37.1722 -80.5458 237° Southwest 468 539 36,000  Level Atlanta Center
09:30PM 37.0969 -80.6925 237° Southwest 468 539 36,000  Level Atlanta Center
09:31PM 37.0297 -80.8228 237° Southwest 463 533 36,000  Level Atlanta Center
09:32PM 36.9600 -80.9581 237° Southwest 468 539 36,000  Level Atlanta Center
09:33PM 36.8944 -81.0850 237° Southwest 480 552 36,000  Level Atlanta Center
09:34PM 36.8267 -81.2200 238° Southwest 480 552 36,000  Level Atlanta Center
09:35PM 36.7550 -81.3700 239° Southwest 480 552 36,000  Level Atlanta Center
09:36PM 36.6850 -81.5044 237° Southwest 465 535 36,000  Level Atlanta Center
09:37PM 36.6125 -81.6414 237° Southwest 465 535 36,000  Level Atlanta Center
09:38PM 36.5442 -81.7750 238° Southwest 465 535 36,000  Level Atlanta Center
09:39PM 36.4736 -81.9089 237° Southwest 465 535 36,000  Level Atlanta Center
09:40PM 36.4028 -82.0422 237° Southwest 465 535 36,000  Level Atlanta Center
09:41PM 36.3339 -82.1728 237° Southwest 460 529 36,000  Level Atlanta Center
09:42PM 36.2628 -82.3031 236° Southwest 465 535 36,000  Level Atlanta Center
09:43PM 36.1958 -82.4333 238° Southwest 460 529 36,000  Level Atlanta Center
09:44PM 36.1244 -82.5658 236° Southwest 460 529 36,000  Level Atlanta Center
09:45PM 36.0550 -82.6981 237° Southwest 460 529 36,000  Level Atlanta Center
09:46PM 35.9856 -82.8300 237° Southwest 460 529 36,000  Level Atlanta Center
09:47PM 35.9139 -82.9619 236° Southwest 465 535 36,000  Level Atlanta Center
09:48PM 35.8500 -83.0781 236° Southwest 465 535 36,000  Level Atlanta Center
09:49PM 35.7781 -83.2094 236° Southwest 465 535 36,000  Level Atlanta Center
09:50PM 35.7100 -83.3406 237° Southwest 459 528 36,000  Level Atlanta Center
09:51PM 35.6378 -83.4742 236° Southwest 469 540 36,000  Level Atlanta Center
09:52PM 35.5653 -83.6072 236° Southwest 469 540 36,000  Level Atlanta Center
09:53PM 35.4925 -83.7378 236° Southwest 469 540 36,000  Level Atlanta Center
09:54PM 35.4197 -83.8681 236° Southwest 469 540 36,000  Level Atlanta Center
09:55PM 35.3469 -83.9981 236° Southwest 469 540 36,000  Level Atlanta Center
09:56PM 35.2758 -84.1278 236° Southwest 469 540 36,000  Level Atlanta Center
09:57PM 35.2028 -84.2600 236° Southwest 469 540 36,000  Level Atlanta Center
09:58PM 35.1314 -84.3892 236° Southwest 469 540 36,000  Level Atlanta Center
09:59PM 35.0850 -84.5286 248° West 454 522 36,000  Level Atlanta Center
10:00PM 35.0406 -84.6731 249° West 449 517 36,000  Level Atlanta Center
10:01PM 34.9981 -84.8147 250° West 454 522 36,000  Level Atlanta Center
10:02PM 34.9533 -84.9714 251° West 449 517 36,000  Level Atlanta Center
10:03PM 34.9125 -85.1153 251° West 449 517 36,000  Level Atlanta Center
10:04PM 34.8714 -85.2617 251° West 449 517 36,000  Level Atlanta Center
10:05PM 34.8364 -85.4053 254° West 443 510 36,000  Level Atlanta Center
10:06PM 34.7994 -85.5489 253° West 443 510 36,000  Level Atlanta Center
10:07PM 34.7578 -85.6922 251° West 443 510 36,000  Level Atlanta Center
10:08PM 34.6933 -85.8250 239° Southwest 450 518 36,000  Level Atlanta Center
10:09PM 34.6308 -85.9547 240° Southwest 445 512 36,000  Level Atlanta Center
10:10PM 34.5681 -86.0897 241° Southwest 456 525 36,000  Level Atlanta Center
10:11PM 34.5053 -86.2242 240° Southwest 462 532 36,000  Level Atlanta Center
10:12PM 34.4403 -86.3561 239° Southwest 462 532 36,000  Level Atlanta Center
10:13PM 34.3750 -86.4928 240° Southwest 462 532 36,000  Level Atlanta Center
10:14PM 34.3097 -86.6264 239° Southwest 462 532 36,000  Level Atlanta Center
10:15PM 34.2442 -86.7603 239° Southwest 467 537 36,000  Level Atlanta Center
10:16PM 34.1764 -86.8961 239° Southwest 467 537 36,000  Level Atlanta Center
10:17PM 34.1172 -87.0122 238° Southwest 467 537 36,000  Level Atlanta Center
10:19PM 34.0406 -87.1911 243° Southwest 489 563 36,000  Level Memphis Center
10:20PM 33.9786 -87.3039 237° Southwest 450 518 36,000  Level Memphis Center
10:21PM 33.9089 -87.4389 238° Southwest 459 528 36,000  Level Memphis Center
10:22PM 33.8469 -87.5661 240° Southwest 454 522 36,000  Level Memphis Center
10:23PM 33.7789 -87.6981 238° Southwest 461 531 36,000  Level Memphis Center
10:24PM 33.7169 -87.8275 240° Southwest 461 531 36,000  Level Memphis Center
10:25PM 33.6547 -87.9489 238° Southwest 455 524 36,000  Level Memphis Center
10:26PM 33.5903 -88.0781 239° Southwest 455 524 36,000  Level Memphis Center
10:27PM 33.5197 -88.2169 239° Southwest 455 524 36,000  Level Memphis Center
10:28PM 33.4653 -88.3328 241° Southwest 455 524 36,000  Level Memphis Center
10:29PM 33.4025 -88.4586 239° Southwest 455 524 36,000  Level Memphis Center
10:30PM 33.3356 -88.5844 238° Southwest 450 518 36,000  Level Memphis Center
10:31PM 33.2644 -88.7275 239° Southwest 455 524 36,000  Level Memphis Center
10:32PM 33.1992 -88.8553 239° Southwest 455 524 36,000  Level Memphis Center
10:33PM 33.1339 -88.9778 238° Southwest 455 524 36,000  Level Memphis Center
10:34PM 33.0683 -89.1053 238° Southwest 450 518 36,000  Level Memphis Center
10:35PM 33.0008 -89.2328 238° Southwest 455 524 36,000  Level Memphis Center
10:36PM 32.9350 -89.3597 238° Southwest 455 524 36,000  Level Memphis Center
10:37PM 32.8672 -89.4842 237° Southwest 450 518 36,000  Level Memphis Center
10:38PM 32.7992 -89.6083 237° Southwest 455 524 36,000  Level Memphis Center
10:39PM 32.7308 -89.7400 238° Southwest 455 524 36,000  Level Memphis Center
10:40PM 32.6708 -89.8539 238° Southwest 455 524 36,000  Level Memphis Center
10:41PM 32.6044 -89.9825 239° Southwest 455 524 36,000  Level Memphis Center
10:42PM 32.5361 -90.1108 238° Southwest 455 524 36,000  Level Memphis Center
10:43PM 32.4714 -90.2367 239° Southwest 455 524 36,000  Level Memphis Center
10:44PM 32.4025 -90.3647 238° Southwest 460 529 36,000  Level Memphis Center
10:45PM 32.3294 -90.5072 239° Southwest 460 529 36,000  Level Memphis Center
10:46PM 32.2625 -90.6350 238° Southwest 460 529 36,000  Level Memphis Center
10:46PM 32.2150 -90.7278 239° Southwest 461 531 36,000  Level Houston Center
10:47PM 32.1567 -90.8389 238° Southwest 465 535 36,000  Level Houston Center
10:48PM 32.0750 -90.9925 238° Southwest 463 533 36,000  Level Houston Center
10:49PM 31.9889 -91.1044 228° Southwest 471 542 36,000  Level Houston Center
10:50PM 31.8678 -91.1731 206° Southwest 479 551 36,000  Level Houston Center
10:51PM 31.7456 -91.2394 205° Southwest 481 554 36,000 -180 Level Houston Center
10:52PM 31.6242 -91.3056 205° Southwest 479 551 35,700 -600 Descending Houston Center
10:54PM 31.5022 -91.3731 205° Southwest 483 556 34,800 -840 Descending Houston Center
10:55PM 31.3783 -91.4389 204° Southwest 486 559 34,000 -420 Descending Houston Center
10:56PM 31.2581 -91.5047 205° Southwest 478 550 34,000  Level Houston Center
10:57PM 31.1350 -91.5703 205° Southwest 482 555 34,000  Level Houston Center
10:58PM 31.0128 -91.6364 205° Southwest 482 555 34,000  Level Houston Center
10:59PM 30.8919 -91.7019 205° Southwest 478 550 34,000  Level Houston Center
11:00PM 30.7689 -91.7672 205° Southwest 481 554 34,000  Level Houston Center
11:01PM 30.6725 -91.8647 221° Southwest 461 531 34,000  Level Houston Center
11:02PM 30.6131 -92.0000 243° Southwest 462 532 34,000  Level Houston Center
11:03PM 30.5533 -92.1322 242° Southwest 459 528 34,000  Level Houston Center
11:04PM 30.4836 -92.2894 243° Southwest 457 526 34,000  Level Houston Center
11:05PM 30.4353 -92.3928 242° Southwest 448 516 34,000  Level Houston Center
11:06PM 30.3669 -92.5475 243° Southwest 450 518 34,000  Level Houston Center
11:07PM 30.3089 -92.6758 242° Southwest 448 516 34,000 -60 Level Houston Center
11:08PM 30.2136 -92.7742 222° Southwest 458 527 33,900  Descending Houston Center
11:09PM 30.1139 -92.8625 217° Southwest 451 519 34,000  Climbing Houston Center
11:10PM 30.0125 -92.9464 216° Southwest 447 514 34,000  Level Houston Center
11:11PM 29.9072 -93.0314 215° Southwest 455 524 34,000  Level Houston Center
11:12PM 29.7978 -93.1078 211° Southwest 456 525 34,000 -60 Level Houston Center
11:13PM 29.6883 -93.1883 213° Southwest 463 533 33,900  Descending Houston Center
11:14PM 29.5914 -93.2881 222° Southwest 464 534 34,000 -780 Climbing Houston Center
11:15PM 29.5178 -93.4100 235° Southwest 468 539 32,400 -2,220 Descending Houston Center
11:16PM 29.5067 -93.5464 265° West 432 497 29,600 -2,940 Descending Houston Center
11:17PM 29.5114 -93.6775 272° West 415 478 26,500 -3,240 Descending Houston Center
11:18PM 29.5158 -93.8061 272° West 405 466 23,100 -3,360 Descending Houston Center
11:19PM 29.5197 -93.9317 272° West 397 457 19,700 -3,180 Descending Houston Center
11:20PM 29.5239 -94.0550 272° West 391 450 16,700 -2,820 Descending Houston Center
11:21PM 29.5272 -94.1775 272° West 376 433 14,000 -1,980 Descending Houston Center
11:22PM 29.5317 -94.2936 273° West 367 422 12,700 -1,380 Descending Houston Center
11:22PM 29.5567 -94.3589 294° West 345 397 11,900 -1,440 Descending Houston Center
11:23PM 29.5964 -94.4189 307° West 331 381 11,000 -1,320 Descending Houston Center
11:24PM 29.6458 -94.4942 307° West 325 374 9,800 -1,320 Descending Houston Center
11:25PM 29.7022 -94.5783 308° West 319 367 8,500 -1,260 Descending Houston Center
11:26PM 29.7500 -94.6489 308° West 320 368 7,400 -1,200 Descending Houston Center
11:27PM 29.8058 -94.7361 306° West 302 348 6,100 -1,140 Descending Houston Center
11:28PM 29.8486 -94.8000 308° West 296 341 5,100 -1,080 Descending Houston Center
11:29PM 29.8958 -94.8719 307° West 289 333 4,000 -600 Descending Houston Center
11:30PM 29.9414 -94.9417 307° West 280 322 4,000  Level Houston Center
11:31PM 29.9792 -95.0153 301° West 276 318 4,000 -240 Level Houston Center
11:31PM 29.9786 -95.0497 269° West 257 296 3,700 -1,020 Descending Houston Center